Terminal Aerodrome Forecast
Issued by NWS

Home | Current Version | Previous Version | Text Only | Print | Product List | Glossary On
Versions: 1 2 3 4 5 6 7 8 9 10 11 12 13 14 15 16 17 18 19
091
FTUS43 KDLH 061129
TAFHIB
TAF
KHIB 061129Z 0612/0712 21003KT P6SM SCT030 BKN080
     FM061800 18008KT P6SM SCT015 OVC050
     FM062200 18011KT 2SM -SN OVC015
      TEMPO 0623/0703 3/4SM -SN OVC007
     FM070600 23012KT P6SM VCSH OVC010=

USA.gov is the U.S. government's official web portal to all federal, state and local government web resources and services.